Time;durP1;ratioP1;P1;durP2;ratioP2;P2;SDS_P1;SDS_P2;PMS_P1;PMS_P2;Temp;Humidity;BMP_temperature;BMP_pressure;BME280_temperature;BME280_humidity;BME280_pressure;Samples;Min_cycle;Max_cycle;Signal;HPM_P1;HPM_P2
2021/12/25 00:00:05;;;;;;;49.27;24.35;;;;;;;-0.21;100.00;97377.45;1773475;81;20979;-66
2021/12/25 00:02:33;;;;;;;43.95;22.87;;;;;;;-0.14;100.00;97381.11;1773761;81;20907;-67
2021/12/25 00:04:59;;;;;;;36.88;20.32;;;;;;;-0.08;100.00;97369.61;1745549;81;21142;-67
2021/12/25 00:07:27;;;;;;;41.77;22.10;;;;;;;-0.04;100.00;97356.54;1773311;81;21018;-66
2021/12/25 00:09:53;;;;;;;41.92;22.87;;;;;;;0.00;100.00;97359.45;1773503;81;20860;-67
2021/12/25 00:12:19;;;;;;;37.63;20.40;;;;;;;0.02;100.00;97360.49;1773379;81;22024;-66
2021/12/25 00:14:47;;;;;;;40.23;21.20;;;;;;;0.04;100.00;97359.07;1773484;81;20963;-66
2021/12/25 00:17:14;;;;;;;36.50;20.25;;;;;;;0.09;100.00;97356.80;1773557;81;21887;-66
2021/12/25 00:19:43;;;;;;;39.23;21.65;;;;;;;0.13;100.00;97343.45;1773345;81;20994;-67
2021/12/25 00:22:10;;;;;;;42.83;21.93;;;;;;;0.14;100.00;97348.56;1773569;80;21046;-66
2021/12/25 00:24:42;;;;;;;39.88;21.30;;;;;;;0.18;100.00;97351.47;1776424;80;20903;-65
2021/12/25 00:27:22;;;;;;;38.95;21.35;;;;;;;0.21;100.00;97349.50;1775949;80;20871;-66
2021/12/25 00:29:54;;;;;;;37.85;21.70;;;;;;;0.22;100.00;97350.55;1773787;80;21361;-66
2021/12/25 00:34:49;;;;;;;38.28;21.20;;;;;;;0.29;100.00;97352.84;1776623;80;20966;-66
2021/12/25 00:37:16;;;;;;;45.58;22.22;;;;;;;0.32;100.00;97354.16;1776545;80;20983;-67
2021/12/25 00:39:43;;;;;;;34.45;19.42;;;;;;;0.34;100.00;97350.02;1776868;80;20927;-67
2021/12/25 00:42:11;;;;;;;39.85;18.23;;;;;;;0.38;100.00;97356.18;1776434;80;21945;-66
2021/12/25 00:44:38;;;;;;;35.92;19.23;;;;;;;0.42;100.00;97355.83;1776412;80;20988;-66
2021/12/25 00:47:04;;;;;;;35.35;20.12;;;;;;;0.45;100.00;97350.60;1776559;80;20966;-67
2021/12/25 00:49:31;;;;;;;33.85;18.37;;;;;;;0.51;100.00;97351.84;1776578;80;21392;-66
2021/12/25 00:51:57;;;;;;;35.13;21.05;;;;;;;0.52;100.00;97340.69;1776516;80;20935;-67
2021/12/25 00:54:33;;;;;;;34.15;19.62;;;;;;;0.54;99.82;97347.97;1776999;80;21152;-67
2021/12/25 00:57:00;;;;;;;36.55;19.15;;;;;;;0.53;99.71;97346.34;1776398;80;21018;-66
2021/12/25 00:59:27;;;;;;;35.50;19.65;;;;;;;0.54;99.64;97341.19;1776826;80;21563;-65
2021/12/25 01:01:53;;;;;;;31.15;18.42;;;;;;;0.55;99.61;97344.69;1776617;80;20976;-66
2021/12/25 01:04:20;;;;;;;31.57;17.82;;;;;;;0.56;99.61;97344.95;1776441;80;20887;-65
2021/12/25 01:06:51;;;;;;;28.42;17.98;;;;;;;0.58;99.56;97342.73;1776435;80;21182;-65
2021/12/25 01:09:17;;;;;;;30.15;16.95;;;;;;;0.61;99.48;97352.96;1776485;80;20931;-65
2021/12/25 01:11:47;;;;;;;32.08;18.45;;;;;;;0.62;99.41;97349.13;1776528;80;20903;-66
2021/12/25 01:14:24;;;;;;;28.87;17.62;;;;;;;0.65;99.31;97341.73;1776837;80;20888;-66
2021/12/25 01:19:47;;;;;;;33.58;19.45;;;;;;;0.71;99.27;97356.80;1776388;80;21445;-65
2021/12/25 01:25:26;;;;;;;28.45;17.48;;;;;;;0.77;99.03;97339.83;1776725;80;20982;-66
2021/12/25 01:30:17;;;;;;;29.05;17.23;;;;;;;0.87;98.70;97347.48;1776459;80;20936;-65
2021/12/25 01:39:05;;;;;;;28.67;16.05;;;;;;;0.91;98.10;97357.94;1776578;80;20971;-66
2021/12/25 01:50:00;;;;;;;28.70;15.30;;;;;;;0.98;97.92;97361.03;1726633;83;20894;-66
2021/12/25 01:52:29;;;;;;;27.75;16.05;;;;;;;1.01;97.78;97355.55;1718687;83;21048;-66
2021/12/25 01:55:00;;;;;;;26.52;14.38;;;;;;;1.01;97.59;97350.91;1669650;86;21056;-65
2021/12/25 01:57:28;;;;;;;28.87;14.65;;;;;;;1.02;97.45;97360.67;1698015;83;20968;-64
2021/12/25 01:59:59;;;;;;;23.98;15.15;;;;;;;1.01;97.34;97350.13;1697758;83;21088;-66
2021/12/25 02:02:26;;;;;;;19.67;12.35;;;;;;;1.04;97.37;97353.57;1698331;84;20978;-66
2021/12/25 02:04:52;;;;;;;24.63;13.83;;;;;;;1.07;97.43;97368.68;1686906;85;20950;-67
2021/12/25 02:07:19;;;;;;;23.35;12.95;;;;;;;1.12;97.30;97370.45;1686927;85;20991;-66
2021/12/25 02:09:46;;;;;;;18.52;11.65;;;;;;;1.17;97.26;97382.53;1687072;85;21044;-66
2021/12/25 02:12:15;;;;;;;24.05;13.20;;;;;;;1.24;97.20;97379.92;1687117;85;21406;-66
2021/12/25 02:14:44;;;;;;;20.50;12.23;;;;;;;1.30;97.06;97375.97;1686889;85;20845;-67
2021/12/25 02:17:27;;;;;;;16.37;11.03;;;;;;;1.36;96.76;97380.71;1687447;85;21478;-65
2021/12/25 02:19:55;;;;;;;25.85;11.28;;;;;;;1.40;96.56;97380.34;1686921;85;20972;-66
2021/12/25 02:22:18;;;;;;;19.82;10.48;;;;;;;1.43;96.39;97380.50;1620921;85;21031;-66
2021/12/25 02:24:45;;;;;;;17.73;11.03;;;;;;;1.48;96.27;97370.09;1681086;84;22048;-67
2021/12/25 02:27:13;;;;;;;16.75;9.95;;;;;;;1.51;96.05;97383.03;1680325;85;20877;-66
2021/12/25 02:29:40;;;;;;;21.27;10.80;;;;;;;1.54;95.88;97387.02;1680205;85;21002;-67
2021/12/25 02:32:07;;;;;;;18.10;9.83;;;;;;;1.55;95.64;97384.56;1680305;85;21055;-67
2021/12/25 02:34:35;;;;;;;16.00;9.65;;;;;;;1.57;95.45;97387.75;1680615;85;21029;-67
2021/12/25 02:37:03;;;;;;;18.00;11.12;;;;;;;1.57;95.39;97399.41;1680425;85;21793;-66
2021/12/25 02:39:30;;;;;;;18.50;11.60;;;;;;;1.60;95.37;97394.48;1680493;85;21543;-66
2021/12/25 02:41:57;;;;;;;17.50;9.98;;;;;;;1.63;95.23;97409.59;1680289;85;21004;-67
2021/12/25 02:44:23;;;;;;;18.27;10.10;;;;;;;1.65;95.08;97406.02;1679767;85;21052;-66
2021/12/25 02:46:54;;;;;;;14.10;8.53;;;;;;;1.67;94.92;97404.34;1680595;85;20992;-66
2021/12/25 02:49:19;;;;;;;16.20;9.78;;;;;;;1.70;94.79;97414.03;1680441;84;21894;-65
2021/12/25 02:51:48;;;;;;;16.42;8.80;;;;;;;1.73;94.75;97424.00;1680396;85;20961;-66
2021/12/25 02:54:17;;;;;;;12.88;8.60;;;;;;;1.75;94.65;97428.56;1680437;85;20969;-66
2021/12/25 02:56:43;;;;;;;12.93;8.50;;;;;;;1.79;94.62;97432.27;1680619;85;21005;-67
2021/12/25 02:59:16;;;;;;;13.83;8.65;;;;;;;1.83;94.49;97427.80;1680771;85;20993;-67
2021/12/25 03:01:39;;;;;;;13.15;8.75;;;;;;;1.86;94.18;97438.61;1679601;85;21839;-67
2021/12/25 03:04:06;;;;;;;14.18;7.87;;;;;;;1.86;94.12;97429.88;1680404;85;21007;-65
2021/12/25 03:06:36;;;;;;;15.98;8.78;;;;;;;1.87;93.93;97422.00;1657221;85;21004;-64
2021/12/25 03:09:06;;;;;;;13.32;7.37;;;;;;;1.90;93.85;97430.88;1680466;85;20985;-68
2021/12/25 03:11:34;;;;;;;12.15;7.20;;;;;;;1.92;93.74;97434.08;1680470;85;20877;-67
2021/12/25 03:14:24;;;;;;;14.35;7.85;;;;;;;1.97;93.54;97433.68;1680527;85;21154;-67
2021/12/25 03:16:40;;;;;;;14.55;8.10;;;;;;;1.97;93.41;97452.70;1680479;85;20984;-67
2021/12/25 03:19:08;;;;;;;12.05;8.05;;;;;;;1.96;93.21;97456.54;1680393;85;20968;-67
2021/12/25 03:21:34;;;;;;;11.95;8.10;;;;;;;1.96;93.00;97463.33;1680536;85;21493;-67
2021/12/25 03:24:01;;;;;;;13.50;8.40;;;;;;;1.92;92.97;97466.68;1680428;85;21063;-67
2021/12/25 03:26:29;;;;;;;13.55;8.20;;;;;;;1.90;92.83;97457.23;1679797;85;21145;-67
2021/12/25 03:28:59;;;;;;;11.57;7.35;;;;;;;1.89;92.78;97474.10;1680416;85;21027;-67
2021/12/25 03:31:25;;;;;;;12.82;8.03;;;;;;;1.87;92.93;97471.44;1680456;85;21048;-67
2021/12/25 03:33:54;;;;;;;10.90;6.95;;;;;;;1.87;92.82;97480.39;1680600;85;21480;-67
2021/12/25 03:36:21;;;;;;;12.00;7.33;;;;;;;1.88;92.82;97483.89;1680482;85;21509;-67
2021/12/25 03:38:48;;;;;;;15.30;8.60;;;;;;;1.88;92.67;97484.70;1680607;85;21121;-66
2021/12/25 03:41:15;;;;;;;13.55;8.23;;;;;;;1.89;92.62;97494.47;1680402;85;20861;-67
2021/12/25 03:43:43;;;;;;;11.00;7.08;;;;;;;1.90;92.47;97515.08;1680531;85;20899;-67
2021/12/25 03:46:11;;;;;;;10.98;7.35;;;;;;;1.88;92.45;97501.55;1680394;85;20995;-67
2021/12/25 03:49:00;;;;;;;14.13;7.92;;;;;;;1.87;92.62;97513.54;1680707;84;21091;-65
2021/12/25 03:59:21;;;;;;;7.97;5.92;;;;;;;1.84;93.04;97538.61;1680437;85;21004;-68
2021/12/25 04:01:56;;;;;;;10.05;6.55;;;;;;;1.81;93.33;97546.81;1680704;85;20925;-68
2021/12/25 04:04:25;;;;;;;9.43;6.10;;;;;;;1.81;93.35;97568.53;1679997;85;21406;-68
2021/12/25 04:07:01;;;;;;;11.28;5.67;;;;;;;1.78;93.30;97568.61;1680013;85;20976;-67
2021/12/25 04:09:28;;;;;;;10.80;5.78;;;;;;;1.74;93.26;97579.84;1680156;85;21473;-68
2021/12/25 04:11:50;;;;;;;9.70;5.87;;;;;;;1.70;93.28;97596.52;1679206;85;22194;-67
2021/12/25 04:14:18;;;;;;;9.95;5.95;;;;;;;1.65;93.28;97605.59;1680408;85;21501;-66
2021/12/25 04:16:44;;;;;;;11.45;7.20;;;;;;;1.61;93.72;97614.64;1680604;85;21169;-68
2021/12/25 04:19:11;;;;;;;10.38;6.15;;;;;;;1.55;94.02;97618.05;1680475;85;20945;-67
2021/12/25 04:21:42;;;;;;;9.25;5.65;;;;;;;1.52;94.28;97626.81;1680535;85;20976;-68
2021/12/25 04:24:05;;;;;;;7.33;4.92;;;;;;;1.45;94.09;97647.59;1680127;84;21016;-68
2021/12/25 04:26:36;;;;;;;9.58;5.37;;;;;;;1.29;100.00;97649.82;1687176;84;20972;-68
2021/12/25 04:29:16;;;;;;;7.72;5.03;;;;;;;1.09;100.00;97660.00;1680073;85;21142;-67
2021/12/25 04:31:59;;;;;;;7.55;4.30;;;;;;;0.94;100.00;97664.62;1689320;84;21536;-68
2021/12/25 05:04:15;;;;;;;9.20;4.60;;;;;;;0.48;100.00;97736.75;1689494;85;20951;-69
2021/12/25 05:06:42;;;;;;;6.50;4.10;;;;;;;0.46;100.00;97732.98;1671992;85;20937;-66
2021/12/25 05:09:10;;;;;;;6.67;4.28;;;;;;;0.48;100.00;97740.81;1743021;82;21926;-68
2021/12/25 05:11:37;;;;;;;6.87;3.92;;;;;;;0.52;100.00;97745.91;1743146;82;21066;-68
2021/12/25 05:14:05;;;;;;;9.78;4.70;;;;;;;0.54;100.00;97753.20;1742705;82;20895;-68
2021/12/25 05:16:39;;;;;;;12.13;5.75;;;;;;;0.54;100.00;97764.05;1743168;82;20947;-69
2021/12/25 05:19:06;;;;;;;12.40;4.92;;;;;;;0.54;100.00;97771.36;1742914;82;20847;-67
2021/12/25 05:21:33;;;;;;;7.55;4.50;;;;;;;0.53;100.00;97769.19;1742901;82;21080;-67
2021/12/25 05:24:00;;;;;;;10.40;4.92;;;;;;;0.48;100.00;97774.70;1742759;82;20884;-66
2021/12/25 05:26:28;;;;;;;11.97;5.45;;;;;;;0.47;100.00;97786.11;1742940;82;21014;-64
2021/12/25 05:28:59;;;;;;;9.65;4.75;;;;;;;0.45;100.00;97791.02;1742822;82;21412;-68
2021/12/25 05:31:30;;;;;;;8.20;4.80;;;;;;;0.46;100.00;97802.09;1742994;81;21022;-68
2021/12/25 05:34:01;;;;;;;7.83;4.62;;;;;;;0.46;100.00;97814.30;1743041;82;21077;-70
2021/12/25 05:36:36;;;;;;;10.28;4.92;;;;;;;0.48;100.00;97819.42;1742607;82;20920;-67
2021/12/25 05:39:13;;;;;;;7.53;4.33;;;;;;;0.48;100.00;97816.70;1703516;82;21054;-64
2021/12/25 05:41:41;;;;;;;7.20;4.33;;;;;;;0.46;100.00;97821.07;1742739;82;21460;-66
2021/12/25 05:44:09;;;;;;;7.20;4.55;;;;;;;0.44;100.00;97821.94;1742841;82;20982;-68
2021/12/25 05:46:47;;;;;;;8.33;4.47;;;;;;;0.45;100.00;97833.56;1742423;82;21737;-62
2021/12/25 05:49:15;;;;;;;10.05;5.10;;;;;;;0.42;100.00;97837.68;1742847;81;20974;-68
2021/12/25 05:51:56;;;;;;;8.28;5.08;;;;;;;0.39;100.00;97851.83;1742719;82;20851;-67
2021/12/25 05:54:27;;;;;;;8.95;5.53;;;;;;;0.36;100.00;97839.66;1742961;82;21471;-68
2021/12/25 05:57:14;;;;;;;7.53;5.33;;;;;;;0.36;100.00;97848.32;1742758;82;20927;-68
2021/12/25 05:59:49;;;;;;;8.28;5.60;;;;;;;0.34;100.00;97856.75;1703032;82;21258;-65
2021/12/25 06:02:17;;;;;;;7.75;5.33;;;;;;;0.35;100.00;97873.28;1742714;82;21038;-66
2021/12/25 06:04:45;;;;;;;8.85;5.60;;;;;;;0.35;100.00;97886.02;1742877;82;20995;-65
2021/12/25 06:07:12;;;;;;;9.53;5.15;;;;;;;0.33;99.66;97901.76;1742746;82;22012;-66
2021/12/25 06:09:40;;;;;;;7.85;5.08;;;;;;;0.30;99.42;97910.47;1742872;82;20995;-69
2021/12/25 06:12:10;;;;;;;9.23;5.15;;;;;;;0.27;99.23;97902.39;1742664;82;22302;-67
2021/12/25 06:14:36;;;;;;;10.43;5.70;;;;;;;0.22;99.10;97915.44;1715900;82;20848;-66
2021/12/25 06:17:10;;;;;;;7.97;5.22;;;;;;;0.19;99.00;97916.02;1742728;82;21038;-67
2021/12/25 06:19:38;;;;;;;10.80;5.95;;;;;;;0.17;98.91;97932.33;1742590;82;21002;-68
2021/12/25 06:22:07;;;;;;;9.38;6.00;;;;;;;0.11;98.41;97949.17;1694694;82;21078;-68
2021/12/25 06:24:43;;;;;;;11.45;6.72;;;;;;;0.08;98.12;97941.09;1743633;82;21161;-67
2021/12/25 06:27:18;;;;;;;13.72;7.28;;;;;;;0.05;97.41;97966.59;1745324;82;21002;-69
2021/12/25 06:29:47;;;;;;;12.37;7.58;;;;;;;0.01;96.59;97962.84;1735417;82;20989;-68
2021/12/25 06:32:32;;;;;;;14.55;7.78;;;;;;;-0.03;96.41;97973.44;1745881;82;21407;-67
2021/12/25 06:35:03;;;;;;;12.28;6.85;;;;;;;-0.05;95.99;97972.38;1745522;82;20828;-69
2021/12/25 06:37:36;;;;;;;13.85;7.58;;;;;;;-0.04;94.85;97977.25;1745302;82;21707;-69
2021/12/25 06:40:11;;;;;;;11.63;7.00;;;;;;;-0.07;94.46;97979.97;1745521;82;20991;-68
2021/12/25 06:42:39;;;;;;;13.13;7.78;;;;;;;-0.08;94.28;97988.38;1745819;82;20962;-69
2021/12/25 06:45:07;;;;;;;16.73;8.15;;;;;;;-0.10;94.27;97995.44;1746045;82;20975;-69
2021/12/25 06:47:36;;;;;;;12.03;6.83;;;;;;;-0.11;94.23;98000.61;1745916;82;20983;-68
2021/12/25 06:50:07;;;;;;;15.90;8.73;;;;;;;-0.13;94.01;98017.69;1745865;81;21151;-69
2021/12/25 06:52:52;;;;;;;14.78;7.97;;;;;;;-0.12;93.79;98017.97;1745944;82;20911;-69
2021/12/25 06:55:18;;;;;;;13.35;7.80;;;;;;;-0.12;93.26;98023.38;1745570;82;20971;-69
2021/12/25 06:58:02;;;;;;;16.20;9.60;;;;;;;-0.15;92.83;98020.68;1710801;84;21035;-70
2021/12/25 07:00:29;;;;;;;12.82;7.65;;;;;;;-0.15;92.51;98024.74;1734335;82;21507;-70
2021/12/25 07:02:57;;;;;;;14.28;8.28;;;;;;;-0.19;91.39;98034.55;1745754;82;21136;-68
2021/12/25 07:05:44;;;;;;;16.73;9.15;;;;;;;-0.21;90.93;98027.78;1745752;82;20931;-69
2021/12/25 07:08:26;;;;;;;13.18;8.38;;;;;;;-0.22;90.67;98031.59;1745437;82;21533;-69
2021/12/25 07:11:11;;;;;;;15.45;9.63;;;;;;;-0.25;90.33;98047.31;1745764;82;20923;-69
2021/12/25 07:13:50;;;;;;;16.32;9.40;;;;;;;-0.28;90.09;98052.48;1716265;82;21044;-66
2021/12/25 07:16:18;;;;;;;14.58;8.53;;;;;;;-0.30;89.75;98058.19;1745588;82;22263;-68
2021/12/25 07:18:54;;;;;;;15.18;8.43;;;;;;;-0.30;89.54;98060.08;1728218;82;20927;-68
2021/12/25 07:21:37;;;;;;;17.10;9.80;;;;;;;-0.30;89.15;98068.20;1745244;82;21531;-68
2021/12/25 07:24:06;;;;;;;16.93;10.20;;;;;;;-0.34;88.23;98067.16;1745445;82;21066;-68
2021/12/25 07:26:34;;;;;;;20.02;10.15;;;;;;;-0.37;88.26;98076.64;1742854;82;20915;-67
2021/12/25 07:29:03;;;;;;;21.07;11.53;;;;;;;-0.38;87.97;98091.28;1742726;82;21380;-66
2021/12/25 07:31:30;;;;;;;16.60;10.18;;;;;;;-0.38;87.80;98085.87;1742824;82;20919;-68
2021/12/25 07:33:57;;;;;;;17.57;10.15;;;;;;;-0.39;87.71;98088.29;1742918;82;20987;-71
2021/12/25 07:36:25;;;;;;;17.48;10.45;;;;;;;-0.37;87.71;98099.12;1743240;82;21037;-67
2021/12/25 07:38:53;;;;;;;19.82;8.55;;;;;;;-0.34;87.70;98105.85;1742606;82;20876;-68
2021/12/25 07:41:20;;;;;;;17.55;9.18;;;;;;;-0.29;87.54;98116.64;1742921;82;21209;-68
2021/12/25 07:43:46;;;;;;;16.93;9.50;;;;;;;-0.21;87.40;98136.09;1742901;82;20880;-68
2021/12/25 07:46:17;;;;;;;18.40;10.05;;;;;;;-0.17;87.25;98139.87;1742840;82;20910;-64
2021/12/25 07:48:45;;;;;;;17.30;8.85;;;;;;;-0.16;87.06;98142.83;1742884;81;20844;-68
2021/12/25 07:51:12;;;;;;;17.25;9.50;;;;;;;-0.15;86.98;98155.27;1742953;82;20919;-64
2021/12/25 07:53:38;;;;;;;16.20;9.13;;;;;;;-0.16;86.88;98151.77;1742883;82;21129;-68
2021/12/25 07:56:04;;;;;;;14.33;8.98;;;;;;;-0.14;86.59;98167.16;1742746;82;20974;-67
2021/12/25 07:58:32;;;;;;;16.73;9.48;;;;;;;-0.10;86.51;98162.56;1742822;82;20907;-65
2021/12/25 08:00:59;;;;;;;16.82;10.13;;;;;;;-0.06;86.33;98166.30;1742927;82;20966;-66
2021/12/25 08:03:26;;;;;;;16.75;10.48;;;;;;;0.00;85.88;98173.32;1742938;82;21002;-69
2021/12/25 08:05:53;;;;;;;15.32;8.30;;;;;;;0.04;85.07;98177.60;1742903;82;21126;-69
2021/12/25 08:08:20;;;;;;;19.45;10.93;;;;;;;0.06;84.60;98183.55;1743014;82;21496;-69
2021/12/25 08:10:48;;;;;;;20.40;10.88;;;;;;;0.05;84.33;98195.49;1742959;82;21002;-70
2021/12/25 08:13:16;;;;;;;22.17;10.28;;;;;;;0.04;83.66;98183.84;1743020;82;20927;-68
2021/12/25 08:15:43;;;;;;;21.65;11.78;;;;;;;0.03;83.29;98189.54;1742988;82;20974;-69
2021/12/25 08:18:12;;;;;;;20.85;11.30;;;;;;;-0.02;82.95;98191.75;1742913;82;21072;-68
2021/12/25 08:20:59;;;;;;;16.93;9.83;;;;;;;-0.05;83.21;98203.94;1742962;82;21502;-66
2021/12/25 08:23:47;;;;;;;20.45;10.60;;;;;;;-0.08;82.85;98200.45;1743037;82;21388;-68
2021/12/25 08:26:32;;;;;;;19.12;10.03;;;;;;;-0.08;82.38;98207.22;1742762;81;21000;-66
2021/12/25 08:29:03;;;;;;;17.77;10.18;;;;;;;-0.07;82.10;98216.16;1742255;82;21503;-70
2021/12/25 08:31:48;;;;;;;21.27;11.88;;;;;;;-0.10;80.85;98220.22;1743044;82;21142;-66
2021/12/25 08:34:28;;;;;;;26.25;12.78;;;;;;;-0.17;80.95;98225.16;1742426;82;20987;-68
2021/12/25 08:37:01;;;;;;;25.00;11.48;;;;;;;-0.17;81.17;98236.00;1742928;82;21483;-68
2021/12/25 08:39:28;;;;;;;18.92;10.15;;;;;;;-0.19;80.86;98241.70;1742877;82;21075;-65
2021/12/25 08:42:02;;;;;;;20.82;11.90;;;;;;;-0.19;80.10;98242.23;1742866;82;20895;-67
2021/12/25 08:44:37;;;;;;;20.57;10.70;;;;;;;-0.19;80.40;98251.70;1742836;82;21531;-70
2021/12/25 08:47:05;;;;;;;19.90;10.88;;;;;;;-0.16;80.55;98249.26;1743136;82;20915;-69
2021/12/25 08:49:33;;;;;;;22.15;12.33;;;;;;;-0.13;80.55;98250.05;1742707;81;21033;-67
2021/12/25 08:52:03;;;;;;;22.05;12.25;;;;;;;-0.10;80.30;98250.02;1743158;82;20991;-68
2021/12/25 08:54:31;;;;;;;22.87;12.28;;;;;;;-0.08;80.15;98251.91;1742932;82;21471;-69
2021/12/25 08:56:59;;;;;;;23.67;12.90;;;;;;;-0.05;80.15;98249.98;1742803;82;21239;-67
2021/12/25 08:59:27;;;;;;;20.20;10.68;;;;;;;-0.05;79.43;98251.91;1742892;82;20962;-69
2021/12/25 09:01:54;;;;;;;20.40;10.10;;;;;;;-0.06;79.04;98257.04;1742789;82;20887;-65
2021/12/25 09:04:21;;;;;;;20.95;11.70;;;;;;;-0.07;79.37;98254.86;1742704;82;21047;-70
2021/12/25 09:06:49;;;;;;;25.50;12.18;;;;;;;-0.04;79.28;98247.56;1742947;82;21460;-65
2021/12/25 09:09:15;;;;;;;27.55;13.15;;;;;;;-0.03;79.30;98247.81;1742921;82;21139;-68
2021/12/25 09:11:41;;;;;;;22.77;11.57;;;;;;;-0.02;78.94;98256.19;1742763;82;21019;-69
2021/12/25 09:14:08;;;;;;;22.32;11.60;;;;;;;-0.02;78.25;98254.84;1716088;82;21016;-69
2021/12/25 09:16:37;;;;;;;21.62;11.88;;;;;;;-0.04;77.92;98254.33;1742778;82;20938;-71
2021/12/25 09:19:04;;;;;;;24.67;12.73;;;;;;;0.02;78.44;98257.80;1742806;82;20958;-67
2021/12/25 09:21:30;;;;;;;24.43;12.75;;;;;;;0.08;78.32;98262.11;1743270;82;21106;-63
2021/12/25 09:23:57;;;;;;;20.85;11.60;;;;;;;0.09;77.80;98267.78;1742802;82;21496;-67
2021/12/25 09:26:25;;;;;;;22.50;11.55;;;;;;;0.06;77.84;98278.36;1742441;82;20943;-69
2021/12/25 09:28:52;;;;;;;21.55;11.10;;;;;;;0.01;77.75;98291.41;1742757;82;20923;-66
2021/12/25 09:31:18;;;;;;;18.65;9.88;;;;;;;-0.06;77.86;98297.13;1742975;82;20934;-67
2021/12/25 09:33:45;;;;;;;23.45;11.15;;;;;;;-0.12;77.83;98305.03;1742728;82;21105;-69
2021/12/25 09:36:11;;;;;;;18.02;8.25;;;;;;;-0.19;77.79;98298.56;1742802;82;21620;-69
2021/12/25 09:38:37;;;;;;;18.30;9.18;;;;;;;-0.20;77.11;98302.34;1742792;82;20990;-67
2021/12/25 09:41:04;;;;;;;24.50;8.65;;;;;;;-0.16;77.16;98308.83;1742812;82;20927;-65
2021/12/25 09:43:31;;;;;;;16.82;8.08;;;;;;;-0.10;76.65;98323.14;1742878;82;21022;-69
2021/12/25 09:46:00;;;;;;;14.38;7.28;;;;;;;-0.10;75.86;98317.72;1743202;82;21070;-68
2021/12/25 09:48:26;;;;;;;15.35;7.50;;;;;;;-0.23;74.29;98315.63;1742741;81;21464;-67
2021/12/25 09:50:53;;;;;;;16.87;7.50;;;;;;;-0.36;74.13;98323.27;1742699;82;20983;-68
2021/12/25 09:53:20;;;;;;;17.25;8.28;;;;;;;-0.49;75.21;98315.19;1742885;82;21058;-68
2021/12/25 09:55:48;;;;;;;12.43;6.70;;;;;;;-0.58;77.39;98306.03;1742888;82;21408;-70
2021/12/25 09:58:15;;;;;;;14.13;7.22;;;;;;;-0.74;81.26;98319.06;1742849;82;21078;-69
2021/12/25 10:00:44;;;;;;;12.40;6.45;;;;;;;-0.78;80.37;98315.80;1742820;82;20974;-67
2021/12/25 10:03:10;;;;;;;13.22;6.62;;;;;;;-0.80;79.25;98312.02;1742622;82;20999;-68
2021/12/25 10:05:47;;;;;;;25.88;11.33;;;;;;;-0.79;77.48;98316.37;1742727;82;21507;-69
2021/12/25 10:08:23;;;;;;;13.90;7.67;;;;;;;-0.73;77.15;98321.20;1742862;82;21458;-68
2021/12/25 10:11:01;;;;;;;16.65;8.60;;;;;;;-0.74;75.72;98324.47;1742851;82;23373;-68
2021/12/25 10:13:40;;;;;;;24.35;11.08;;;;;;;-0.76;75.60;98323.93;1742778;82;20965;-69
2021/12/25 10:16:28;;;;;;;19.40;9.50;;;;;;;-0.66;75.56;98329.03;1742882;82;20871;-67
2021/12/25 10:19:16;;;;;;;19.92;9.08;;;;;;;-0.57;75.12;98336.88;1742801;82;20952;-68
2021/12/25 10:21:45;;;;;;;15.65;7.33;;;;;;;-0.56;73.90;98335.77;1743426;82;20879;-69
2021/12/25 10:24:28;;;;;;;14.75;7.78;;;;;;;-0.60;72.11;98338.78;1742723;82;22503;-62
2021/12/25 10:27:13;;;;;;;15.72;7.62;;;;;;;-0.59;72.53;98341.74;1745069;82;20923;-69
2021/12/25 10:29:40;;;;;;;38.98;8.05;;;;;;;-0.56;72.48;98342.54;1745787;82;20879;-67
2021/12/25 10:32:22;;;;;;;11.28;5.78;;;;;;;-0.50;71.68;98344.16;1745570;82;20991;-69
2021/12/25 10:34:51;;;;;;;13.28;5.95;;;;;;;-0.48;69.81;98340.36;1721117;82;20934;-67
2021/12/25 10:37:20;;;;;;;14.15;5.60;;;;;;;-0.51;68.89;98345.23;1745847;82;21154;-67
2021/12/25 10:39:47;;;;;;;12.53;5.15;;;;;;;-0.52;67.45;98347.69;1745670;82;20987;-68
2021/12/25 10:42:20;;;;;;;12.73;6.47;;;;;;;-0.56;66.56;98356.63;1745996;82;21028;-68
2021/12/25 10:44:52;;;;;;;15.28;6.87;;;;;;;-0.62;66.01;98353.94;1745885;82;21041;-69
2021/12/25 10:47:21;;;;;;;10.23;5.87;;;;;;;-0.65;65.51;98354.46;1745779;82;21038;-68
2021/12/25 10:49:55;;;;;;;13.62;6.15;;;;;;;-0.66;64.57;98353.39;1745684;81;21873;-68
2021/12/25 10:52:33;;;;;;;12.13;6.72;;;;;;;-0.63;64.48;98357.71;1746099;82;21030;-69
2021/12/25 10:55:06;;;;;;;12.82;6.25;;;;;;;-0.52;64.30;98362.57;1746385;82;21046;-69
2021/12/25 10:57:47;;;;;;;20.45;8.85;;;;;;;-0.46;64.04;98367.41;1721015;82;20899;-68
2021/12/25 11:00:24;;;;;;;20.27;8.83;;;;;;;-0.47;64.16;98360.38;1745595;82;21385;-68
2021/12/25 11:03:05;;;;;;;18.65;7.50;;;;;;;-0.50;63.78;98355.53;1737798;82;21229;-69
2021/12/25 11:05:44;;;;;;;15.85;7.70;;;;;;;-0.55;63.63;98372.59;1745872;82;20840;-66
2021/12/25 11:08:23;;;;;;;14.00;6.25;;;;;;;-0.60;63.16;98365.84;1746185;82;20911;-68
2021/12/25 11:10:59;;;;;;;21.10;8.25;;;;;;;-0.65;63.19;98377.47;1745399;82;20974;-69
2021/12/25 11:13:32;;;;;;;13.55;5.80;;;;;;;-0.69;61.63;98389.94;1746118;82;20983;-67
2021/12/25 11:16:16;;;;;;;13.70;6.53;;;;;;;-0.70;61.36;98380.73;1745906;82;21138;-66
2021/12/25 11:19:15;;;;;;;17.17;6.10;;;;;;;-0.73;61.17;98394.26;1580862;90;21015;-67
2021/12/25 11:21:56;;;;;;;16.17;7.28;;;;;;;-0.75;61.29;98390.47;1580873;90;21055;-65
2021/12/25 11:24:38;;;;;;;13.62;5.97;;;;;;;-0.80;61.10;98394.53;1580941;90;21499;-69
2021/12/25 11:27:04;;;;;;;10.98;4.90;;;;;;;-0.81;61.62;98405.63;1580477;90;21038;-66
2021/12/25 11:29:33;;;;;;;12.13;5.85;;;;;;;-0.87;61.59;98404.84;1580908;90;21146;-68
2021/12/25 11:32:00;;;;;;;12.63;5.85;;;;;;;-0.95;61.25;98412.12;1581071;90;21003;-68
2021/12/25 11:34:28;;;;;;;14.35;5.67;;;;;;;-1.05;61.51;98422.41;1580850;90;21003;-67
2021/12/25 11:36:56;;;;;;;15.88;7.08;;;;;;;-1.05;60.85;98422.41;1581077;90;21041;-68
2021/12/25 11:39:25;;;;;;;15.93;6.50;;;;;;;-1.06;61.09;98439.19;1580964;90;21032;-66
2021/12/25 11:41:56;;;;;;;18.25;9.30;;;;;;;-1.03;61.04;98434.59;1580936;90;21507;-67
2021/12/25 11:44:41;;;;;;;19.07;8.10;;;;;;;-0.99;61.35;98436.22;1580701;90;21456;-68
2021/12/25 11:47:06;;;;;;;;;;;;;;;-0.96;59.72;98438.37;1583483;90;20936;-67
2021/12/25 11:49:33;;;;;;;18.12;8.35;;;;;;;-1.03;59.83;98441.88;1603023;89;20157;-69
2021/12/25 11:52:18;;;;;;;13.98;7.03;;;;;;;-1.13;59.52;98453.51;1606303;89;21019;-65
2021/12/25 11:55:10;;;;;;;14.73;6.90;;;;;;;-1.11;59.38;98471.08;1606006;89;21989;-69
2021/12/25 11:59:49;;;;;;;24.40;10.32;;;;;;;-0.89;59.68;98466.52;1606205;89;21024;-69
2021/12/25 12:02:42;;;;;;;;;;;;;;;-0.71;59.39;98471.09;1608731;89;21435;-68
2021/12/25 12:05:29;;;;;;;13.40;6.42;;;;;;;-0.68;58.35;98475.99;1606201;89;20164;-68
2021/12/25 12:08:11;;;;;;;27.82;9.35;;;;;;;-0.81;57.95;98486.27;1606055;89;21149;-68
2021/12/25 12:10:59;;;;;;;18.30;7.12;;;;;;;-0.98;56.65;98479.75;1605972;89;20964;-69
2021/12/25 12:13:40;;;;;;;15.78;6.47;;;;;;;-1.13;56.36;98505.70;1602645;89;21015;-69
2021/12/25 12:16:08;;;;;;;12.53;5.53;;;;;;;-1.28;55.31;98506.45;1602274;89;21797;-68
2021/12/25 12:18:42;;;;;;;11.93;5.37;;;;;;;-1.36;54.94;98505.09;1618160;86;21537;-68
2021/12/25 12:21:33;;;;;;;12.98;5.17;;;;;;;-1.33;54.78;98487.52;1638326;87;21532;-69
2021/12/25 12:26:49;;;;;;;19.35;8.20;;;;;;;-1.06;52.73;98497.87;1638328;87;21490;-69
2021/12/25 12:29:36;;;;;;;42.15;16.32;;;;;;;-1.04;52.70;98505.97;1638540;87;20965;-67
2021/12/25 12:32:03;;;;;;;30.95;12.40;;;;;;;-1.01;52.87;98501.38;1638334;87;21069;-67
2021/12/25 12:34:34;;;;;;;12.78;6.78;;;;;;;-1.03;52.83;98515.73;1638237;87;21235;-67
2021/12/25 12:37:19;;;;;;;16.37;6.22;;;;;;;-1.12;52.71;98518.14;1638085;87;21477;-69
2021/12/25 12:40:07;;;;;;;12.40;6.12;;;;;;;-1.17;52.80;98516.77;1638375;87;21593;-67
2021/12/25 12:42:48;;;;;;;14.00;6.72;;;;;;;-1.21;53.32;98517.02;1638410;87;20984;-68
2021/12/25 12:45:29;;;;;;;11.33;5.50;;;;;;;-1.30;52.86;98530.80;1638416;86;21434;-67
2021/12/25 12:48:21;;;;;;;11.93;5.90;;;;;;;-1.41;53.39;98536.16;1635881;87;20948;-70
2021/12/25 12:50:53;;;;;;;13.08;5.87;;;;;;;-1.45;53.72;98539.66;1638496;87;21029;-69
2021/12/25 12:53:21;;;;;;;14.18;6.72;;;;;;;-1.47;53.66;98545.34;1638583;87;21542;-66